Terminal Aerodrome Forecast
Issued by NWS

Home | Current Version | Previous Version | Text Only | Print | Product List | Glossary Off
Versions: 1 2 3 4 5 6 7 8 9 10 11 12 13

107
FTUS43 KBIS 261720
TAFJMS
TAF
KJMS 261720Z 2618/2718 35010KT P6SM SKC
     FM270200 VRB05KT P6SM SKC
     FM271700 12004KT P6SM FEW250=

USA.gov is the U.S. government's official web portal to all federal, state and local government web resources and services.